Wonewoc, Wisconsin
Current Conditions -  °F | °C
As of 7:15 PM on Friday 24 Oct 2014 (Local Time) from KC35 Reporting Station
Overcast Overcast  
Wind Chill: 58°   Ceiling: 1900
Heat Index: 58°   Visibility: 10mi
Dew Point: 52°   Wind: 6mph
Humidity: 80%   Direction: 220°SW
Pressure: 29.91"   Gusts: NA
Location:  43.65°N, 90.22°W
Report Text: KC35 250015Z AUTO 22005KT 10SM OVC019 15/11 A2991 RMK AO2 T01470112
Loading
Personal Weather Stations






























Interactive Weather Map
Tropical Storm Tracking
New forecast layout! Learn more

10-Day Weather Forecast

Advertisements
Track Severe Weather on mobile